Terminal Aerodrome Forecast
Issued by NWS Mt. Holly, NJ

Current Version | Previous Version | Text Only | Print | Product List | Glossary On
Versions: 1 2 3 4 5 6 7 8 9 10 11 12 13 14 15 16 17 18 19 20 21 22 23 24 25
775
FTUS41 KPHI 271302 AAB
TAFACY
TAF AMD
KACY 271302Z 2713/2812 19005KT P6SM BKN025
      TEMPO 2713/2715 BKN015
     FM271700 17011KT P6SM SCT060 BKN200
     FM280200 17004KT P6SM VCSH BKN040
     FM280800 17003KT 5SM BR BKN009=

USA.gov is the U.S. government's official web portal to all federal, state and local government web resources and services.